This is the latest recevied weather packets stored in our database for station/object ON8GE-13. If no packets are shown the sender has not sent any weather packets the latest 10 day(s).
| Time | Temp. | Humidity | Pressure | Rain* | Wind** | Luminosity | Snow |
|---|---|---|---|---|---|---|---|
| 1777292458 | 18.33° C | 42% | 1023.3 hPa | 0 mm | - | 716 W/m² | - |
| 1777284658 | 16.11° C | 46% | 1024.2 hPa | 0 mm | - | 670 W/m² | - |
| 1777281657 | 15° C | 50% | 1024.6 hPa | 0 mm | - | 508 W/m² | - |
| 1777280458 | 13.89° C | 55% | 1024.6 hPa | 0 mm | - | 492 W/m² | - |
| 1777277455 | 12.22° C | 65% | 1024.8 hPa | 0 mm | - | 402 W/m² | - |
| 1777273255 | 8.33° C | 74% | 1025 hPa | 0 mm | - | 176 W/m² | - |
| 1777272057 | 7.78° C | 75% | 1025.1 hPa | 0 mm | - | 178 W/m² | - |
| 1777265457 | 3.89° C | 85% | 1025.2 hPa | 0 mm | - | 16 W/m² | - |
| 1777261257 | 3.33° C | 87% | 1025.2 hPa | 0 mm | - | 0 W/m² | - |
| 1777255860 | 4.44° C | 83% | 1024.9 hPa | 0 mm | - | 0 W/m² | - |
| 1777249857 | 6.11° C | 76% | 1025.3 hPa | 0 mm | - | 0 W/m² | - |
| 1777243263 | 7.22° C | 75% | 1025.5 hPa | 0 mm | - | 0 W/m² | - |
| 1777240866 | 8.89° C | 69% | 1025.1 hPa | 0 mm | - | 0 W/m² | - |
| 1777238466 | 8.89° C | 65% | 1024.8 hPa | 0 mm | - | 0 W/m² | - |
| 1777236669 | 10° C | 64% | 1025 hPa | 0 mm | - | 0 W/m² | - |
| 1777234278 | 11.11° C | 62% | 1024.9 hPa | 0 mm | - | 0 W/m² | - |
| 1777232468 | 11.67° C | 63% | 1024.8 hPa | 0 mm | - | 0 W/m² | - |
| 1777231865 | 11.67° C | 61% | 1024.7 hPa | 0 mm | - | 0 W/m² | - |
| 1777226462 | 14.44° C | 53% | 1024 hPa | 0 mm | - | 46 W/m² | - |
| 1777225259 | 15.56° C | 51% | 1024 hPa | 0 mm | - | 60 W/m² | - |
| 1777224661 | 15.56° C | 50% | 1023.9 hPa | 0 mm | - | 90 W/m² | - |
| 1777222861 | 17.22° C | 46% | 1023.9 hPa | 0 mm | - | 184 W/m² | - |
| 1777219264 | 18.33° C | 45% | 1024.1 hPa | 0 mm | - | 346 W/m² | - |
| 1777218058 | 18.33° C | 45% | 1024.2 hPa | 0 mm | - | 368 W/m² | - |
| 1777210859 | 17.78° C | 49% | 1024.8 hPa | 0 mm | - | 612 W/m² | - |
* Rain latest hour (hover to see other rain measurements)
** Current wind speed in m/s (hover to see current wind gust speed)